createdAt,value
2022-11-01T00:00:46.090Z,83.40
2022-11-01T00:03:48.551Z,80.43
2022-11-01T00:06:51.489Z,79.22
2022-11-01T00:09:53.951Z,72.55
2022-11-01T00:12:57.754Z,80.95
2022-11-01T00:16:00.528Z,71.43
2022-11-01T00:19:03.031Z,65.55
2022-11-01T00:22:05.501Z,74.57
2022-11-01T00:25:08.546Z,80.97
2022-11-01T00:28:12.470Z,76.32
2022-11-01T00:31:16.427Z,70.95
2022-11-01T00:34:19.133Z,82.47
2022-11-01T00:37:21.603Z,79.53
2022-11-01T00:40:24.054Z,84.45
2022-11-01T00:43:27.853Z,70.50
2022-11-01T00:46:30.630Z,76.43
2022-11-01T00:49:33.079Z,76.20
2022-11-01T00:52:35.684Z,80.80
2022-11-01T00:55:38.221Z,79.18
2022-11-01T00:58:42.049Z,78.95
2022-11-01T01:01:44.592Z,76.70
2022-11-01T01:04:48.455Z,81.88
2022-11-01T01:07:51.084Z,69.30
2022-11-01T01:10:53.613Z,81.72
2022-11-01T01:13:57.637Z,76.00
2022-11-01T01:17:00.345Z,73.28
2022-11-01T01:20:03.133Z,78.78
2022-11-01T01:23:06.061Z,68.55
2022-11-01T01:26:09.798Z,70.90
2022-11-01T01:29:13.604Z,74.47
2022-11-01T01:32:17.348Z,70.43
2022-11-01T01:35:19.990Z,74.50
2022-11-01T01:38:22.434Z,66.70
2022-11-01T01:41:42.521Z,72.75
2022-11-01T01:45:21.583Z,69.80
2022-11-01T01:48:28.387Z,65.68
2022-11-01T01:51:31.041Z,65.85
2022-11-01T01:54:33.714Z,72.97
2022-11-01T01:57:37.648Z,78.88
2022-11-01T02:00:41.147Z,75.97
2022-11-01T02:03:45.899Z,74.65
2022-11-01T02:06:49.011Z,75.88
2022-11-01T02:09:52.046Z,87.38
2022-11-01T02:12:54.599Z,75.47
2022-11-01T02:16:21.396Z,72.38
2022-11-01T02:19:55.632Z,79.72
2022-11-01T02:23:17.782Z,84.55
2022-11-01T02:26:48.370Z,77.95
2022-11-01T02:30:13.832Z,79.28
2022-11-01T02:33:27.458Z,88.15
2022-11-01T02:36:39.989Z,76.88
2022-11-01T02:39:48.530Z,74.70
2022-11-01T02:42:54.729Z,90.63
2022-11-01T02:46:18.826Z,75.00
2022-11-01T02:49:23.682Z,81.13
2022-11-01T02:52:29.871Z,91.45
2022-11-01T02:55:34.261Z,82.00
2022-11-01T02:58:37.194Z,87.95
2022-11-01T03:01:43.110Z,92.97
2022-11-01T03:04:48.268Z,94.05
2022-11-01T03:07:56.369Z,83.05
2022-11-01T03:11:06.332Z,86.05
2022-11-01T03:14:22.242Z,86.28
2022-11-01T03:17:33.584Z,78.72
2022-11-01T03:20:48.905Z,81.53
2022-11-01T03:23:55.996Z,82.72
2022-11-01T03:27:05.168Z,81.80
2022-11-01T03:30:10.840Z,84.13
2022-11-01T03:33:15.313Z,89.60
2022-11-01T03:36:22.616Z,95.20
2022-11-01T03:39:29.892Z,87.88
2022-11-01T03:42:33.754Z,85.00
2022-11-01T03:45:40.280Z,77.65
2022-11-01T03:48:42.921Z,88.82
2022-11-01T03:51:47.323Z,85.70
2022-11-01T03:54:49.790Z,92.60
2022-11-01T03:57:53.698Z,95.57
2022-11-01T04:00:56.199Z,97.80
2022-11-01T04:03:58.707Z,94.63
2022-11-01T04:07:02.498Z,87.18
2022-11-01T04:10:05.911Z,91.10
2022-11-01T04:13:08.378Z,96.43
2022-11-01T04:16:28.797Z,89.53
2022-11-01T04:19:48.624Z,89.22
2022-11-01T04:22:52.417Z,93.00
2022-11-01T04:25:54.896Z,96.72
2022-11-01T04:29:00.127Z,105.18
2022-11-01T04:32:03.188Z,87.90
2022-11-01T04:38:13.496Z,97.95
2022-11-01T04:41:17.619Z,99.38
2022-11-01T04:44:20.086Z,95.47
2022-11-01T04:47:22.563Z,85.35
2022-11-01T04:50:25.050Z,86.30
2022-11-01T04:53:28.997Z,90.18
2022-11-01T04:56:31.508Z,82.50
2022-11-01T04:59:33.989Z,82.78
2022-11-01T05:02:36.530Z,90.00
2022-11-01T05:05:39.418Z,87.72
2022-11-01T05:08:43.225Z,86.90
2022-11-01T05:11:46.331Z,85.40
2022-11-01T05:14:51.837Z,81.80
2022-11-01T05:18:01.814Z,77.45
2022-11-01T05:21:04.486Z,82.18
2022-11-01T05:24:09.161Z,79.00
2022-11-01T05:27:11.680Z,72.93
2022-11-01T05:30:14.577Z,78.35
2022-11-01T05:33:17.045Z,84.88
2022-11-01T05:36:19.519Z,92.45
2022-11-01T05:39:23.396Z,77.57
2022-11-01T05:42:25.907Z,79.28
2022-11-01T05:45:28.499Z,79.63
2022-11-01T05:48:30.952Z,76.47
2022-11-01T05:51:33.419Z,74.43
2022-11-01T05:54:37.214Z,69.80
2022-11-01T05:57:39.739Z,79.65
2022-11-01T06:00:42.299Z,77.68
2022-11-01T06:03:44.927Z,78.43
2022-11-01T06:06:47.376Z,69.93
2022-11-01T06:09:51.147Z,67.65
2022-11-01T06:12:53.630Z,68.53
2022-11-01T06:15:59.258Z,67.97
2022-11-01T06:19:01.707Z,68.47
2022-11-01T06:22:04.159Z,59.45
2022-11-01T06:25:09.133Z,66.65
2022-11-01T06:28:11.593Z,67.20
2022-11-01T06:31:14.490Z,64.20
2022-11-01T06:34:16.972Z,68.80
2022-11-01T06:37:19.465Z,71.95
2022-11-01T06:40:23.261Z,66.20
2022-11-01T06:43:25.733Z,67.38
2022-11-01T06:46:28.211Z,63.50
2022-11-01T06:49:30.681Z,63.47
2022-11-01T06:52:33.158Z,66.68
2022-11-01T06:55:37.438Z,61.65
2022-11-01T06:58:39.898Z,66.47
2022-11-01T07:01:42.492Z,61.40
2022-11-01T07:04:45.037Z,57.85
2022-11-01T07:07:47.493Z,61.28
2022-11-01T07:10:52.627Z,62.00
2022-11-01T07:13:55.278Z,62.50
2022-11-01T07:16:58.736Z,55.25
2022-11-01T07:20:01.320Z,58.85
2022-11-01T07:23:06.310Z,63.13
2022-11-01T07:26:10.292Z,61.63
2022-11-01T07:29:12.805Z,61.38
2022-11-01T07:32:15.282Z,55.58
2022-11-01T07:35:18.011Z,56.72
2022-11-01T07:38:21.324Z,61.40
2022-11-01T07:41:25.228Z,54.08
2022-11-01T07:44:27.711Z,59.03
2022-11-01T07:47:30.563Z,54.00
2022-11-01T07:50:35.036Z,49.58
2022-11-01T07:53:37.602Z,53.13
2022-11-01T07:56:41.365Z,54.42
2022-11-01T07:59:43.818Z,50.50
2022-11-01T08:02:46.288Z,46.28
2022-11-01T08:05:49.303Z,56.17
2022-11-01T08:08:51.761Z,51.83
2022-11-01T08:11:55.550Z,49.30
2022-11-01T08:14:58.004Z,46.38
2022-11-01T08:18:01.261Z,43.83
2022-11-01T08:21:04.082Z,41.40
2022-11-01T08:24:06.920Z,43.58
2022-11-01T08:27:10.762Z,43.40
2022-11-01T08:30:13.689Z,39.20
2022-11-01T08:33:16.532Z,41.03
2022-11-01T08:36:19.014Z,43.97
2022-11-01T08:39:21.503Z,38.75
2022-11-01T08:42:25.304Z,43.10
2022-11-01T08:45:28.663Z,41.88
2022-11-01T08:48:31.142Z,42.55
2022-11-01T08:51:33.656Z,40.80
2022-11-01T08:54:37.425Z,37.03
2022-11-01T08:57:41.246Z,38.75
2022-11-01T09:00:45.007Z,36.38
2022-11-01T09:03:47.584Z,31.95
2022-11-01T09:06:50.058Z,39.13
2022-11-01T09:09:52.532Z,36.58
2022-11-01T09:12:56.354Z,37.92
2022-11-01T09:16:02.213Z,33.88
2022-11-01T09:19:05.361Z,33.08
2022-11-01T09:22:08.672Z,38.50
2022-11-01T09:25:12.576Z,40.05
2022-11-01T09:28:16.450Z,37.47
2022-11-01T09:31:21.349Z,33.83
2022-11-01T09:34:24.316Z,32.28
2022-11-01T09:37:26.804Z,34.17
2022-11-01T09:40:33.343Z,36.70
2022-11-01T09:43:41.923Z,32.50
2022-11-01T09:46:47.156Z,33.83
2022-11-01T09:49:53.616Z,31.52
2022-11-01T09:52:57.194Z,38.58
2022-11-01T09:56:05.335Z,31.85
2022-11-01T09:59:22.423Z,30.92
2022-11-01T10:02:52.640Z,30.15
2022-11-01T10:06:02.510Z,27.20
2022-11-01T10:09:12.983Z,27.27
2022-11-01T10:12:50.308Z,29.92
2022-11-01T10:16:01.100Z,27.67
2022-11-01T10:19:06.061Z,27.25
2022-11-01T10:22:15.709Z,31.15
2022-11-01T10:25:22.434Z,26.00
2022-11-01T10:28:33.503Z,26.42
2022-11-01T10:31:43.782Z,25.95
2022-11-01T10:34:46.955Z,32.80
2022-11-01T10:38:11.422Z,30.35
2022-11-01T10:41:24.367Z,25.17
2022-11-01T10:44:31.639Z,27.73
2022-11-01T10:47:35.966Z,26.63
2022-11-01T10:50:39.492Z,26.38
2022-11-01T10:53:46.035Z,22.17
2022-11-01T10:56:51.687Z,23.38
2022-11-01T10:59:56.952Z,21.67
2022-11-01T11:03:07.486Z,19.27
2022-11-01T11:06:13.020Z,19.00
2022-11-01T11:09:23.457Z,21.67
2022-11-01T11:12:27.773Z,16.02
2022-11-01T11:15:39.083Z,16.15
2022-11-01T11:19:02.039Z,16.23
2022-11-01T11:22:08.040Z,15.70
2022-11-01T11:25:16.203Z,15.20
2022-11-01T11:28:25.555Z,13.50
2022-11-01T11:31:31.282Z,21.02
2022-11-01T11:34:39.189Z,15.88
2022-11-01T11:37:53.271Z,16.02
2022-11-01T11:40:55.777Z,15.15
2022-11-01T11:43:59.464Z,16.10
2022-11-01T11:47:03.094Z,17.77
2022-11-01T11:50:26.494Z,19.15
2022-11-01T11:53:30.362Z,16.17
2022-11-01T11:56:32.927Z,18.35
2022-11-01T11:59:36.531Z,18.70
2022-11-01T12:02:41.430Z,12.85
2022-11-01T12:05:55.287Z,13.48
2022-11-01T12:08:59.214Z,15.43
2022-11-01T12:12:08.097Z,17.42
2022-11-01T12:15:27.714Z,15.32
2022-11-01T12:18:30.197Z,18.75
2022-11-01T12:21:38.309Z,18.13
2022-11-01T12:24:46.068Z,15.20
2022-11-01T12:28:02.653Z,15.85
2022-11-01T12:31:12.609Z,14.15
2022-11-01T12:34:20.582Z,16.02
2022-11-01T12:37:27.315Z,16.73
2022-11-01T12:40:33.059Z,15.25
2022-11-01T12:43:46.212Z,21.50
2022-11-01T12:46:54.115Z,16.75
2022-11-01T12:50:01.459Z,13.85
2022-11-01T12:53:11.480Z,10.30
2022-11-01T12:56:14.122Z,10.30
2022-11-01T12:59:27.514Z,19.20
2022-11-01T13:02:56.580Z,12.15
2022-11-01T13:06:07.276Z,15.05
2022-11-01T13:09:20.202Z,15.30
2022-11-01T13:12:32.082Z,11.52
2022-11-01T13:18:48.466Z,15.82
2022-11-01T13:21:58.087Z,12.45
2022-11-01T13:25:07.787Z,23.38
2022-11-01T13:28:23.544Z,13.40
2022-11-01T13:31:43.333Z,11.73
2022-11-01T13:35:01.494Z,17.83
2022-11-01T13:38:09.632Z,14.02
2022-11-01T13:41:23.433Z,14.70
2022-11-01T13:44:29.470Z,9.57
2022-11-01T13:51:00.960Z,13.73
2022-11-01T13:54:07.584Z,10.13
2022-11-01T13:57:14.694Z,12.02
2022-11-01T14:00:37.467Z,9.48
2022-11-01T14:03:39.999Z,13.90
2022-11-01T14:06:43.832Z,12.00
2022-11-01T14:09:48.366Z,10.60
2022-11-01T14:13:15.783Z,12.40
2022-11-01T14:16:22.663Z,10.73
2022-11-01T14:19:25.178Z,11.10
2022-11-01T14:22:29.113Z,13.70
2022-11-01T14:25:33.417Z,14.43
2022-11-01T14:28:44.188Z,20.90
2022-11-01T14:31:48.844Z,13.77
2022-11-01T14:35:01.450Z,8.38
2022-11-01T14:38:07.954Z,12.93
2022-11-01T14:41:14.800Z,12.05
2022-11-01T14:44:25.228Z,9.20
2022-11-01T14:47:35.537Z,13.45
2022-11-01T14:50:46.297Z,11.60
2022-11-01T14:53:53.588Z,8.90
2022-11-01T14:56:58.076Z,10.50
2022-11-01T15:00:21.954Z,9.68
2022-11-01T15:03:24.737Z,11.05
2022-11-01T15:06:30.372Z,11.38
2022-11-01T15:09:33.287Z,11.82
2022-11-01T15:12:47.361Z,12.32
2022-11-01T15:16:13.674Z,10.25
2022-11-01T15:19:19.839Z,11.88
2022-11-01T15:22:26.009Z,9.32
2022-11-01T15:25:28.509Z,10.68
2022-11-01T15:28:36.471Z,10.23
2022-11-01T15:31:50.495Z,10.90
2022-11-01T15:34:55.130Z,17.80
2022-11-01T15:37:58.087Z,13.07
2022-11-01T15:41:00.746Z,8.48
2022-11-01T15:44:06.194Z,13.82
2022-11-01T15:47:18.044Z,12.18
2022-11-01T15:53:26.245Z,12.25
2022-11-01T15:56:40.974Z,9.57
2022-11-01T15:59:52.801Z,10.68
2022-11-01T16:06:13.262Z,8.82
2022-11-01T16:09:26.544Z,11.93
2022-11-01T16:12:33.410Z,9.57
2022-11-01T16:15:35.938Z,8.57
2022-11-01T16:18:42.612Z,9.27
2022-11-01T16:21:49.208Z,17.60
2022-11-01T16:25:01.688Z,8.68
2022-11-01T16:28:07.285Z,12.27
2022-11-01T16:31:22.368Z,8.10
2022-11-01T16:34:29.005Z,8.63
2022-11-01T16:37:37.532Z,30.80
2022-11-01T16:40:40.311Z,90.13
2022-11-01T16:43:43.351Z,19.70
2022-11-01T16:46:45.906Z,17.08
2022-11-01T16:49:51.233Z,13.70
2022-11-01T16:52:54.247Z,39.20
2022-11-01T16:56:23.158Z,61.35
2022-11-01T16:59:32.786Z,25.58
2022-11-01T17:02:35.539Z,16.83
2022-11-01T17:05:39.373Z,12.48
2022-11-01T17:08:42.300Z,13.77
2022-11-01T17:11:50.819Z,17.25
2022-11-01T17:14:55.993Z,41.20
2022-11-01T17:18:06.157Z,11.60
2022-11-01T17:21:11.608Z,82.18
2022-11-01T17:24:17.725Z,43.90
2022-11-01T17:27:20.554Z,32.17
2022-11-01T17:30:23.581Z,28.98
2022-11-01T17:33:26.228Z,11.48
2022-11-01T17:36:30.651Z,77.78
2022-11-01T17:39:33.494Z,8.43
2022-11-01T17:42:36.056Z,12.65
2022-11-01T17:45:38.735Z,19.75
2022-11-01T17:48:41.260Z,15.40
2022-11-01T17:51:45.061Z,15.13
2022-11-01T17:54:47.658Z,12.48
2022-11-01T17:57:50.247Z,13.35
2022-11-01T18:00:52.787Z,20.63
2022-11-01T18:03:55.349Z,16.63
2022-11-01T18:06:59.137Z,19.88
2022-11-01T18:10:02.375Z,17.40
2022-11-01T18:13:26.497Z,20.30
2022-11-01T18:16:33.605Z,19.63
2022-11-01T18:19:48.166Z,17.73
2022-11-01T18:22:55.673Z,19.60
2022-11-01T18:25:58.156Z,22.95
2022-11-01T18:29:11.280Z,18.30
2022-11-01T18:32:20.879Z,16.98
2022-11-01T18:35:32.326Z,20.27
2022-11-01T18:41:45.319Z,12.73
2022-11-01T18:44:48.168Z,13.98
2022-11-01T18:47:55.641Z,18.58
2022-11-01T18:51:05.128Z,15.27
2022-11-01T18:54:30.399Z,18.15
2022-11-01T18:57:32.985Z,13.10
2022-11-01T19:00:35.884Z,12.35
2022-11-01T19:03:38.399Z,14.73
2022-11-01T19:06:40.865Z,12.07
2022-11-01T19:09:53.039Z,13.23
2022-11-01T19:12:56.250Z,12.85
2022-11-01T19:16:01.665Z,12.52
2022-11-01T19:19:10.490Z,11.88
2022-11-01T19:22:31.536Z,16.15
2022-11-01T19:25:37.517Z,11.57
2022-11-01T19:28:41.081Z,13.00
2022-11-01T19:31:45.205Z,16.20
2022-11-01T19:34:48.646Z,13.02
2022-11-01T19:37:54.210Z,17.10
2022-11-01T19:40:58.514Z,14.00
2022-11-01T19:44:06.072Z,10.73
2022-11-01T19:47:31.678Z,15.73
2022-11-01T19:50:39.374Z,11.77
2022-11-01T19:53:41.968Z,56.08
2022-11-01T19:56:45.794Z,124.30
2022-11-01T19:59:48.626Z,18.50
2022-11-01T20:02:53.981Z,10.05
2022-11-01T20:05:56.548Z,10.10
2022-11-01T20:09:04.298Z,11.73
2022-11-01T20:12:09.449Z,9.75
2022-11-01T20:15:12.024Z,9.70
2022-11-01T20:18:14.589Z,12.55
2022-11-01T20:21:17.040Z,11.65
2022-11-01T20:24:19.849Z,10.23
2022-11-01T20:27:24.146Z,16.17
2022-11-01T20:30:26.681Z,114.10
2022-11-01T20:33:29.155Z,39.53
2022-11-01T20:36:31.915Z,16.45
2022-11-01T20:39:34.372Z,12.57
2022-11-01T20:42:38.163Z,16.55
2022-11-01T20:45:40.668Z,32.00
2022-11-01T20:48:45.178Z,8.40
2022-11-01T20:51:47.822Z,9.60
2022-11-01T20:54:50.500Z,14.38
2022-11-01T20:57:54.813Z,10.70
2022-11-01T21:00:57.641Z,12.50
2022-11-01T21:04:00.295Z,11.05
2022-11-01T21:07:03.492Z,15.52
2022-11-01T21:10:26.894Z,46.42
2022-11-01T21:13:33.980Z,86.03
2022-11-01T21:16:36.558Z,21.90
2022-11-01T21:19:39.155Z,15.20
2022-11-01T21:22:41.748Z,16.35
2022-11-01T21:25:45.578Z,11.80
2022-11-01T21:28:51.210Z,15.75
2022-11-01T21:31:53.691Z,38.50
2022-11-01T21:34:57.585Z,16.25
2022-11-01T21:38:00.661Z,31.67
2022-11-01T21:41:17.249Z,92.38
2022-11-01T21:44:27.731Z,46.25
2022-11-01T21:47:31.695Z,17.80
2022-11-01T21:50:34.161Z,9.70
2022-11-01T21:53:37.387Z,25.73
2022-11-01T21:56:39.932Z,15.73
2022-11-01T21:59:44.723Z,8.50
2022-11-01T22:02:47.273Z,6.68
2022-11-01T22:05:49.864Z,6.50
2022-11-01T22:08:52.364Z,22.45
2022-11-01T22:11:55.304Z,8.65
2022-11-01T22:14:59.145Z,9.70
2022-11-01T22:18:01.657Z,6.85
2022-11-01T22:21:04.182Z,30.60
2022-11-01T22:24:07.508Z,69.32
2022-11-01T22:27:10.022Z,155.75
2022-11-01T22:30:15.181Z,86.45
2022-11-01T22:33:17.696Z,69.85
2022-11-01T22:36:24.344Z,32.95
2022-11-01T22:39:27.928Z,7.55
2022-11-01T22:42:32.529Z,22.95
2022-11-01T22:45:36.556Z,11.45
2022-11-01T22:48:39.114Z,10.20
2022-11-01T22:51:44.893Z,10.63
2022-11-01T22:54:49.149Z,6.60
2022-11-01T22:57:55.735Z,7.57
2022-11-01T23:01:01.195Z,7.45
2022-11-01T23:04:03.780Z,24.17
2022-11-01T23:07:20.948Z,9.43
2022-11-01T23:10:26.863Z,9.48
2022-11-01T23:13:49.085Z,10.15
2022-11-01T23:16:52.863Z,9.02
2022-11-01T23:19:58.599Z,10.55
2022-11-01T23:23:01.737Z,28.58
2022-11-01T23:26:04.807Z,8.95
2022-11-01T23:29:07.288Z,8.82
2022-11-01T23:32:12.723Z,66.80
2022-11-01T23:35:18.567Z,15.68
2022-11-01T23:38:24.309Z,6.22
2022-11-01T23:41:31.587Z,7.40
2022-11-01T23:44:36.772Z,11.13
2022-11-01T23:47:41.877Z,6.85
2022-11-01T23:50:45.025Z,5.50
2022-11-01T23:53:50.717Z,6.95
2022-11-01T23:56:55.305Z,4.05
2022-11-01T23:59:57.881Z,12.63
